sensor_id;sensor_type;location;lat;lon;timestamp;pressure;altitude;pressure_sealevel;temperature
48894;BMP280;34710;35.798;139.446;2022-09-09T00:00:35;100609.51;;;30.15
48894;BMP280;34710;35.798;139.446;2022-09-09T00:03:11;100608.03;;;30.29
48894;BMP280;34710;35.798;139.446;2022-09-09T00:05:47;100613.25;;;30.22
48894;BMP280;34710;35.798;139.446;2022-09-09T00:08:25;100611.70;;;30.42
48894;BMP280;34710;35.798;139.446;2022-09-09T00:11:01;100614.21;;;29.86
48894;BMP280;34710;35.798;139.446;2022-09-09T00:13:37;100613.42;;;30.46
48894;BMP280;34710;35.798;139.446;2022-09-09T00:16:17;100619.04;;;30.40
48894;BMP280;34710;35.798;139.446;2022-09-09T00:18:56;100619.16;;;30.84
48894;BMP280;34710;35.798;139.446;2022-09-09T00:21:35;100619.03;;;30.75
48894;BMP280;34710;35.798;139.446;2022-09-09T00:24:14;100625.85;;;30.72
48894;BMP280;34710;35.798;139.446;2022-09-09T00:26:51;100625.99;;;30.65
48894;BMP280;34710;35.798;139.446;2022-09-09T00:29:26;100632.10;;;30.98
48894;BMP280;34710;35.798;139.446;2022-09-09T00:32:04;100630.86;;;30.53
48894;BMP280;34710;35.798;139.446;2022-09-09T00:34:34;100630.33;;;30.73
48894;BMP280;34710;35.798;139.446;2022-09-09T00:37:05;100633.17;;;30.91
48894;BMP280;34710;35.798;139.446;2022-09-09T00:39:38;100635.42;;;30.99
48894;BMP280;34710;35.798;139.446;2022-09-09T00:42:15;100636.33;;;31.01
48894;BMP280;34710;35.798;139.446;2022-09-09T00:44:56;100638.06;;;31.48
48894;BMP280;34710;35.798;139.446;2022-09-09T00:47:40;100637.19;;;31.52
48894;BMP280;34710;35.798;139.446;2022-09-09T00:50:28;100634.69;;;31.22
48894;BMP280;34710;35.798;139.446;2022-09-09T00:53:14;100636.24;;;31.74
48894;BMP280;34710;35.798;139.446;2022-09-09T00:55:49;100636.93;;;31.61
48894;BMP280;34710;35.798;139.446;2022-09-09T00:58:22;100637.14;;;31.90
48894;BMP280;34710;35.798;139.446;2022-09-09T01:00:55;100636.12;;;32.10
48894;BMP280;34710;35.798;139.446;2022-09-09T01:03:34;100636.69;;;32.12
48894;BMP280;34710;35.798;139.446;2022-09-09T01:06:14;100632.91;;;32.02
48894;BMP280;34710;35.798;139.446;2022-09-09T01:09:02;100634.63;;;32.16
48894;BMP280;34710;35.798;139.446;2022-09-09T01:11:41;100636.67;;;31.86
48894;BMP280;34710;35.798;139.446;2022-09-09T01:14:22;100634.16;;;32.09
48894;BMP280;34710;35.798;139.446;2022-09-09T01:16:57;100634.51;;;32.63
48894;BMP280;34710;35.798;139.446;2022-09-09T01:19:37;100634.93;;;32.74
48894;BMP280;34710;35.798;139.446;2022-09-09T01:22:19;100640.97;;;32.91
48894;BMP280;34710;35.798;139.446;2022-09-09T01:25:07;100641.33;;;32.88
48894;BMP280;34710;35.798;139.446;2022-09-09T01:27:41;100639.25;;;32.49
48894;BMP280;34710;35.798;139.446;2022-09-09T01:30:13;100635.74;;;32.86
48894;BMP280;34710;35.798;139.446;2022-09-09T01:32:45;100629.91;;;33.44
48894;BMP280;34710;35.798;139.446;2022-09-09T01:35:26;100629.54;;;33.62
48894;BMP280;34710;35.798;139.446;2022-09-09T01:37:56;100624.83;;;33.83
48894;BMP280;34710;35.798;139.446;2022-09-09T01:40:26;100625.55;;;34.27
48894;BMP280;34710;35.798;139.446;2022-09-09T01:42:56;100625.69;;;34.38
48894;BMP280;34710;35.798;139.446;2022-09-09T01:45:25;100622.10;;;34.76
48894;BMP280;34710;35.798;139.446;2022-09-09T01:47:55;100619.59;;;34.04
48894;BMP280;34710;35.798;139.446;2022-09-09T01:50:25;100618.77;;;35.03
48894;BMP280;34710;35.798;139.446;2022-09-09T01:52:57;100612.45;;;34.64
48894;BMP280;34710;35.798;139.446;2022-09-09T01:55:30;100610.31;;;34.82
48894;BMP280;34710;35.798;139.446;2022-09-09T01:58:17;100605.47;;;34.37
48894;BMP280;34710;35.798;139.446;2022-09-09T02:00:56;100607.07;;;34.20
48894;BMP280;34710;35.798;139.446;2022-09-09T02:03:30;100599.53;;;34.14
48894;BMP280;34710;35.798;139.446;2022-09-09T02:06:08;100600.67;;;33.85
48894;BMP280;34710;35.798;139.446;2022-09-09T02:08:45;100596.84;;;34.29
48894;BMP280;34710;35.798;139.446;2022-09-09T02:11:17;100589.78;;;34.80
48894;BMP280;34710;35.798;139.446;2022-09-09T02:13:50;100588.57;;;35.44
48894;BMP280;34710;35.798;139.446;2022-09-09T02:16:23;100586.06;;;35.69
48894;BMP280;34710;35.798;139.446;2022-09-09T02:19:00;100579.46;;;35.66
48894;BMP280;34710;35.798;139.446;2022-09-09T02:21:31;100574.63;;;36.08
48894;BMP280;34710;35.798;139.446;2022-09-09T02:24:03;100567.97;;;35.97
48894;BMP280;34710;35.798;139.446;2022-09-09T02:26:34;100565.13;;;35.68
48894;BMP280;34710;35.798;139.446;2022-09-09T02:29:09;100561.92;;;34.83
48894;BMP280;34710;35.798;139.446;2022-09-09T02:31:40;100557.43;;;34.78
48894;BMP280;34710;35.798;139.446;2022-09-09T02:34:10;100553.71;;;35.62
48894;BMP280;34710;35.798;139.446;2022-09-09T02:36:43;100548.34;;;36.00
48894;BMP280;34710;35.798;139.446;2022-09-09T02:39:13;100546.86;;;36.42
48894;BMP280;34710;35.798;139.446;2022-09-09T02:41:43;100544.26;;;36.36
48894;BMP280;34710;35.798;139.446;2022-09-09T02:44:13;100540.70;;;36.88
48894;BMP280;34710;35.798;139.446;2022-09-09T02:46:58;100538.58;;;36.75
48894;BMP280;34710;35.798;139.446;2022-09-09T02:49:42;100540.90;;;36.99
48894;BMP280;34710;35.798;139.446;2022-09-09T02:52:17;100542.18;;;36.97
48894;BMP280;34710;35.798;139.446;2022-09-09T02:54:49;100534.76;;;36.71
48894;BMP280;34710;35.798;139.446;2022-09-09T02:57:25;100534.71;;;36.93
48894;BMP280;34710;35.798;139.446;2022-09-09T02:59:58;100527.89;;;36.60
48894;BMP280;34710;35.798;139.446;2022-09-09T03:02:27;100525.31;;;36.71
48894;BMP280;34710;35.798;139.446;2022-09-09T03:04:57;100522.10;;;36.11
48894;BMP280;34710;35.798;139.446;2022-09-09T03:07:26;100520.05;;;36.50
48894;BMP280;34710;35.798;139.446;2022-09-09T03:09:55;100518.58;;;36.13
48894;BMP280;34710;35.798;139.446;2022-09-09T03:12:24;100519.36;;;35.68
48894;BMP280;34710;35.798;139.446;2022-09-09T03:14:54;100512.81;;;35.34
48894;BMP280;34710;35.798;139.446;2022-09-09T03:17:23;100511.82;;;33.99
48894;BMP280;34710;35.798;139.446;2022-09-09T03:19:53;100506.99;;;34.75
48894;BMP280;34710;35.798;139.446;2022-09-09T03:22:22;100498.22;;;34.68
48894;BMP280;34710;35.798;139.446;2022-09-09T03:24:52;100495.43;;;34.75
48894;BMP280;34710;35.798;139.446;2022-09-09T03:27:21;100484.91;;;34.34
48894;BMP280;34710;35.798;139.446;2022-09-09T03:29:50;100480.85;;;33.98
48894;BMP280;34710;35.798;139.446;2022-09-09T03:32:19;100479.22;;;34.27
48894;BMP280;34710;35.798;139.446;2022-09-09T03:34:49;100478.69;;;34.11
48894;BMP280;34710;35.798;139.446;2022-09-09T03:37:18;100475.28;;;34.46
48894;BMP280;34710;35.798;139.446;2022-09-09T03:39:48;100474.52;;;34.71
48894;BMP280;34710;35.798;139.446;2022-09-09T03:42:18;100474.90;;;35.13
48894;BMP280;34710;35.798;139.446;2022-09-09T03:44:47;100477.13;;;33.94
48894;BMP280;34710;35.798;139.446;2022-09-09T03:47:17;100477.97;;;32.87
48894;BMP280;34710;35.798;139.446;2022-09-09T03:49:46;100468.11;;;34.04
48894;BMP280;34710;35.798;139.446;2022-09-09T03:52:16;100462.15;;;33.01
48894;BMP280;34710;35.798;139.446;2022-09-09T03:54:47;100460.78;;;33.14
48894;BMP280;34710;35.798;139.446;2022-09-09T03:57:16;100457.55;;;33.27
48894;BMP280;34710;35.798;139.446;2022-09-09T03:59:45;100453.91;;;33.18
48894;BMP280;34710;35.798;139.446;2022-09-09T04:02:15;100449.53;;;33.20
48894;BMP280;34710;35.798;139.446;2022-09-09T04:04:44;100453.17;;;33.52
48894;BMP280;34710;35.798;139.446;2022-09-09T04:07:14;100448.23;;;34.13
48894;BMP280;34710;35.798;139.446;2022-09-09T04:09:43;100447.34;;;34.52
48894;BMP280;34710;35.798;139.446;2022-09-09T04:12:12;100445.38;;;34.86
48894;BMP280;34710;35.798;139.446;2022-09-09T04:14:41;100447.14;;;35.18
48894;BMP280;34710;35.798;139.446;2022-09-09T04:17:10;100437.33;;;34.99
48894;BMP280;34710;35.798;139.446;2022-09-09T04:19:40;100434.76;;;34.86
48894;BMP280;34710;35.798;139.446;2022-09-09T04:22:10;100436.33;;;35.01
48894;BMP280;34710;35.798;139.446;2022-09-09T04:24:39;100437.03;;;35.40
48894;BMP280;34710;35.798;139.446;2022-09-09T04:27:08;100435.78;;;35.24
48894;BMP280;34710;35.798;139.446;2022-09-09T04:29:38;100429.77;;;34.48
48894;BMP280;34710;35.798;139.446;2022-09-09T04:32:08;100425.32;;;34.61
48894;BMP280;34710;35.798;139.446;2022-09-09T04:34:37;100418.12;;;34.89
48894;BMP280;34710;35.798;139.446;2022-09-09T04:37:06;100415.92;;;35.24
48894;BMP280;34710;35.798;139.446;2022-09-09T04:39:36;100415.99;;;35.29
48894;BMP280;34710;35.798;139.446;2022-09-09T04:42:05;100414.49;;;36.06
48894;BMP280;34710;35.798;139.446;2022-09-09T04:44:34;100411.36;;;35.29
48894;BMP280;34710;35.798;139.446;2022-09-09T04:47:04;100409.05;;;35.39
48894;BMP280;34710;35.798;139.446;2022-09-09T04:49:33;100407.65;;;35.91
48894;BMP280;34710;35.798;139.446;2022-09-09T04:52:02;100407.51;;;35.76
48894;BMP280;34710;35.798;139.446;2022-09-09T04:54:32;100406.06;;;36.26
48894;BMP280;34710;35.798;139.446;2022-09-09T04:57:02;100405.19;;;35.16
48894;BMP280;34710;35.798;139.446;2022-09-09T04:59:31;100405.78;;;35.02
48894;BMP280;34710;35.798;139.446;2022-09-09T05:02:00;100405.25;;;35.46
48894;BMP280;34710;35.798;139.446;2022-09-09T05:04:30;100402.65;;;34.28
48894;BMP280;34710;35.798;139.446;2022-09-09T05:07:00;100405.22;;;33.15
48894;BMP280;34710;35.798;139.446;2022-09-09T05:09:29;100400.46;;;35.20
48894;BMP280;34710;35.798;139.446;2022-09-09T05:11:58;100400.97;;;35.64
48894;BMP280;34710;35.798;139.446;2022-09-09T05:14:28;100399.20;;;36.14
48894;BMP280;34710;35.798;139.446;2022-09-09T05:16:57;100396.31;;;34.40
48894;BMP280;34710;35.798;139.446;2022-09-09T05:19:26;100391.99;;;34.17
48894;BMP280;34710;35.798;139.446;2022-09-09T05:21:55;100392.95;;;31.94
48894;BMP280;34710;35.798;139.446;2022-09-09T05:24:24;100389.79;;;31.97
48894;BMP280;34710;35.798;139.446;2022-09-09T05:26:54;100381.48;;;33.24
48894;BMP280;34710;35.798;139.446;2022-09-09T05:29:23;100384.56;;;33.94
48894;BMP280;34710;35.798;139.446;2022-09-09T05:31:53;100381.79;;;34.45
48894;BMP280;34710;35.798;139.446;2022-09-09T05:34:22;100378.56;;;34.92
48894;BMP280;34710;35.798;139.446;2022-09-09T05:36:52;100375.89;;;34.94
48894;BMP280;34710;35.798;139.446;2022-09-09T05:39:21;100374.98;;;33.94
48894;BMP280;34710;35.798;139.446;2022-09-09T05:41:50;100377.74;;;34.19
48894;BMP280;34710;35.798;139.446;2022-09-09T05:44:19;100373.69;;;34.93
48894;BMP280;34710;35.798;139.446;2022-09-09T05:46:49;100373.35;;;34.73
48894;BMP280;34710;35.798;139.446;2022-09-09T05:49:18;100372.26;;;35.08
48894;BMP280;34710;35.798;139.446;2022-09-09T05:51:48;100367.15;;;35.56
48894;BMP280;34710;35.798;139.446;2022-09-09T05:54:17;100367.80;;;35.44
48894;BMP280;34710;35.798;139.446;2022-09-09T05:56:47;100363.67;;;35.41
48894;BMP280;34710;35.798;139.446;2022-09-09T05:59:16;100369.82;;;35.74
48894;BMP280;34710;35.798;139.446;2022-09-09T06:01:45;100369.54;;;35.82
48894;BMP280;34710;35.798;139.446;2022-09-09T06:04:15;100367.01;;;35.64
48894;BMP280;34710;35.798;139.446;2022-09-09T06:06:45;100361.42;;;35.84
48894;BMP280;34710;35.798;139.446;2022-09-09T06:09:14;100359.80;;;35.46
48894;BMP280;34710;35.798;139.446;2022-09-09T06:11:44;100365.40;;;34.86
48894;BMP280;34710;35.798;139.446;2022-09-09T06:14:13;100367.02;;;34.96
48894;BMP280;34710;35.798;139.446;2022-09-09T06:16:42;100368.42;;;34.72
48894;BMP280;34710;35.798;139.446;2022-09-09T06:19:11;100363.80;;;34.19
48894;BMP280;34710;35.798;139.446;2022-09-09T06:21:42;100366.44;;;34.74
48894;BMP280;34710;35.798;139.446;2022-09-09T06:24:11;100368.51;;;35.07
48894;BMP280;34710;35.798;139.446;2022-09-09T06:26:41;100367.03;;;34.92
48894;BMP280;34710;35.798;139.446;2022-09-09T06:29:11;100364.86;;;35.20
48894;BMP280;34710;35.798;139.446;2022-09-09T06:31:39;100361.68;;;34.26
48894;BMP280;34710;35.798;139.446;2022-09-09T06:34:09;100364.55;;;34.19
48894;BMP280;34710;35.798;139.446;2022-09-09T06:36:39;100366.49;;;34.74
48894;BMP280;34710;35.798;139.446;2022-09-09T06:39:09;100367.64;;;33.76
48894;BMP280;34710;35.798;139.446;2022-09-09T06:41:38;100371.08;;;34.23
48894;BMP280;34710;35.798;139.446;2022-09-09T06:44:07;100369.66;;;34.01
48894;BMP280;34710;35.798;139.446;2022-09-09T06:46:36;100369.55;;;34.30
48894;BMP280;34710;35.798;139.446;2022-09-09T06:49:05;100371.02;;;34.34
48894;BMP280;34710;35.798;139.446;2022-09-09T06:51:36;100377.11;;;34.82
48894;BMP280;34710;35.798;139.446;2022-09-09T06:54:06;100379.37;;;34.85
48894;BMP280;34710;35.798;139.446;2022-09-09T06:56:36;100382.60;;;34.61
48894;BMP280;34710;35.798;139.446;2022-09-09T06:59:07;100383.03;;;34.82
48894;BMP280;34710;35.798;139.446;2022-09-09T07:01:38;100387.14;;;34.88
48894;BMP280;34710;35.798;139.446;2022-09-09T07:04:08;100391.13;;;34.82
48894;BMP280;34710;35.798;139.446;2022-09-09T07:06:40;100396.47;;;34.97
48894;BMP280;34710;35.798;139.446;2022-09-09T07:09:11;100400.08;;;34.95
48894;BMP280;34710;35.798;139.446;2022-09-09T07:11:42;100402.66;;;34.79
48894;BMP280;34710;35.798;139.446;2022-09-09T07:14:13;100403.50;;;34.15
48894;BMP280;34710;35.798;139.446;2022-09-09T07:16:43;100399.83;;;33.62
48894;BMP280;34710;35.798;139.446;2022-09-09T07:19:13;100398.63;;;34.16
48894;BMP280;34710;35.798;139.446;2022-09-09T07:21:44;100400.53;;;33.63
48894;BMP280;34710;35.798;139.446;2022-09-09T07:24:14;100401.53;;;33.59
48894;BMP280;34710;35.798;139.446;2022-09-09T07:26:43;100409.51;;;33.85
48894;BMP280;34710;35.798;139.446;2022-09-09T07:29:12;100409.75;;;34.09
48894;BMP280;34710;35.798;139.446;2022-09-09T07:31:42;100414.09;;;34.21
48894;BMP280;34710;35.798;139.446;2022-09-09T07:34:11;100412.02;;;34.35
48894;BMP280;34710;35.798;139.446;2022-09-09T07:36:41;100416.59;;;34.47
48894;BMP280;34710;35.798;139.446;2022-09-09T07:39:12;100420.19;;;33.83
48894;BMP280;34710;35.798;139.446;2022-09-09T07:41:44;100420.94;;;34.11
48894;BMP280;34710;35.798;139.446;2022-09-09T07:44:15;100416.87;;;34.32
48894;BMP280;34710;35.798;139.446;2022-09-09T07:46:45;100418.84;;;34.25
48894;BMP280;34710;35.798;139.446;2022-09-09T07:49:15;100420.03;;;34.35
48894;BMP280;34710;35.798;139.446;2022-09-09T07:51:45;100421.38;;;33.34
48894;BMP280;34710;35.798;139.446;2022-09-09T07:54:18;100424.74;;;33.49
48894;BMP280;34710;35.798;139.446;2022-09-09T07:56:48;100426.98;;;32.91
48894;BMP280;34710;35.798;139.446;2022-09-09T07:59:18;100425.34;;;33.02
48894;BMP280;34710;35.798;139.446;2022-09-09T08:01:49;100423.53;;;33.59
48894;BMP280;34710;35.798;139.446;2022-09-09T08:04:20;100422.35;;;33.33
48894;BMP280;34710;35.798;139.446;2022-09-09T08:06:52;100419.22;;;33.66
48894;BMP280;34710;35.798;139.446;2022-09-09T08:09:23;100418.92;;;33.53
48894;BMP280;34710;35.798;139.446;2022-09-09T08:11:52;100414.97;;;33.43
48894;BMP280;34710;35.798;139.446;2022-09-09T08:14:22;100417.89;;;32.15
48894;BMP280;34710;35.798;139.446;2022-09-09T08:16:52;100417.10;;;32.97
48894;BMP280;34710;35.798;139.446;2022-09-09T08:19:22;100416.58;;;33.51
48894;BMP280;34710;35.798;139.446;2022-09-09T08:21:51;100420.39;;;32.84
48894;BMP280;34710;35.798;139.446;2022-09-09T08:24:20;100430.25;;;33.47
48894;BMP280;34710;35.798;139.446;2022-09-09T08:26:50;100433.63;;;33.18
48894;BMP280;34710;35.798;139.446;2022-09-09T08:29:19;100428.16;;;33.46
48894;BMP280;34710;35.798;139.446;2022-09-09T08:31:50;100429.88;;;32.79
48894;BMP280;34710;35.798;139.446;2022-09-09T08:34:19;100427.37;;;33.36
48894;BMP280;34710;35.798;139.446;2022-09-09T08:36:50;100422.34;;;33.24
48894;BMP280;34710;35.798;139.446;2022-09-09T08:39:21;100426.38;;;33.21
48894;BMP280;34710;35.798;139.446;2022-09-09T08:42:02;100435.72;;;33.27
48894;BMP280;34710;35.798;139.446;2022-09-09T08:44:48;100443.66;;;33.29
48894;BMP280;34710;35.798;139.446;2022-09-09T08:47:32;100444.69;;;33.44
48894;BMP280;34710;35.798;139.446;2022-09-09T08:50:21;100440.11;;;33.05
48894;BMP280;34710;35.798;139.446;2022-09-09T08:52:55;100436.88;;;33.24
48894;BMP280;34710;35.798;139.446;2022-09-09T08:55:35;100444.38;;;33.47
48894;BMP280;34710;35.798;139.446;2022-09-09T08:58:12;100455.87;;;33.19
48894;BMP280;34710;35.798;139.446;2022-09-09T09:00:50;100462.24;;;33.34
48894;BMP280;34710;35.798;139.446;2022-09-09T09:03:30;100461.33;;;33.21
48894;BMP280;34710;35.798;139.446;2022-09-09T09:06:08;100471.90;;;32.18
48894;BMP280;34710;35.798;139.446;2022-09-09T09:08:46;100479.43;;;32.65
48894;BMP280;34710;35.798;139.446;2022-09-09T09:11:20;100485.43;;;32.84
48894;BMP280;34710;35.798;139.446;2022-09-09T09:13:54;100485.79;;;32.92
48894;BMP280;34710;35.798;139.446;2022-09-09T09:16:32;100482.07;;;33.00
48894;BMP280;34710;35.798;139.446;2022-09-09T09:19:02;100484.27;;;32.82
48894;BMP280;34710;35.798;139.446;2022-09-09T09:21:38;100488.12;;;32.87
48894;BMP280;34710;35.798;139.446;2022-09-09T09:24:16;100489.88;;;32.98
48894;BMP280;34710;35.798;139.446;2022-09-09T09:26:47;100490.08;;;32.98
48894;BMP280;34710;35.798;139.446;2022-09-09T09:29:18;100489.98;;;32.88
48894;BMP280;34710;35.798;139.446;2022-09-09T09:31:52;100494.49;;;32.77
48894;BMP280;34710;35.798;139.446;2022-09-09T09:34:22;100496.21;;;32.65
48894;BMP280;34710;35.798;139.446;2022-09-09T09:36:56;100499.63;;;32.62
48894;BMP280;34710;35.798;139.446;2022-09-09T09:39:28;100496.97;;;32.66
48894;BMP280;34710;35.798;139.446;2022-09-09T09:41:58;100496.24;;;32.45
48894;BMP280;34710;35.798;139.446;2022-09-09T09:44:36;100498.36;;;32.54
48894;BMP280;34710;35.798;139.446;2022-09-09T09:47:11;100500.00;;;32.64
48894;BMP280;34710;35.798;139.446;2022-09-09T09:49:52;100505.54;;;32.62
48894;BMP280;34710;35.798;139.446;2022-09-09T09:52:24;100510.32;;;32.60
48894;BMP280;34710;35.798;139.446;2022-09-09T09:54:57;100512.09;;;32.70
48894;BMP280;34710;35.798;139.446;2022-09-09T09:57:28;100515.90;;;32.45
48894;BMP280;34710;35.798;139.446;2022-09-09T10:00:04;100516.53;;;32.58
48894;BMP280;34710;35.798;139.446;2022-09-09T10:02:42;100512.67;;;32.60
48894;BMP280;34710;35.798;139.446;2022-09-09T10:05:16;100516.02;;;32.62
48894;BMP280;34710;35.798;139.446;2022-09-09T10:07:46;100518.81;;;32.89
48894;BMP280;34710;35.798;139.446;2022-09-09T10:10:19;100523.14;;;32.62
48894;BMP280;34710;35.798;139.446;2022-09-09T10:12:59;100521.91;;;32.63
48894;BMP280;34710;35.798;139.446;2022-09-09T10:15:38;100521.12;;;32.60
48894;BMP280;34710;35.798;139.446;2022-09-09T10:18:24;100516.93;;;32.50
48894;BMP280;34710;35.798;139.446;2022-09-09T10:21:06;100521.43;;;32.17
48894;BMP280;34710;35.798;139.446;2022-09-09T10:23:57;100522.56;;;32.67
48894;BMP280;34710;35.798;139.446;2022-09-09T10:26:40;100523.96;;;32.08
48894;BMP280;34710;35.798;139.446;2022-09-09T10:29:28;100530.07;;;31.94
48894;BMP280;34710;35.798;139.446;2022-09-09T10:32:23;100538.07;;;32.25
48894;BMP280;34710;35.798;139.446;2022-09-09T10:35:01;100548.90;;;31.40
48894;BMP280;34710;35.798;139.446;2022-09-09T10:37:46;100559.64;;;31.78
48894;BMP280;34710;35.798;139.446;2022-09-09T10:40:30;100566.54;;;30.61
48894;BMP280;34710;35.798;139.446;2022-09-09T10:43:10;100575.14;;;30.07
48894;BMP280;34710;35.798;139.446;2022-09-09T10:45:52;100581.82;;;30.55
48894;BMP280;34710;35.798;139.446;2022-09-09T10:48:34;100586.50;;;30.79
48894;BMP280;34710;35.798;139.446;2022-09-09T10:51:20;100595.71;;;29.06
48894;BMP280;34710;35.798;139.446;2022-09-09T10:54:04;100599.28;;;28.17
48894;BMP280;34710;35.798;139.446;2022-09-09T10:56:37;100600.54;;;28.99
48894;BMP280;34710;35.798;139.446;2022-09-09T10:59:11;100602.95;;;28.12
48894;BMP280;34710;35.798;139.446;2022-09-09T11:01:45;100603.12;;;28.30
48894;BMP280;34710;35.798;139.446;2022-09-09T11:04:21;100612.28;;;28.97
48894;BMP280;34710;35.798;139.446;2022-09-09T11:06:54;100616.77;;;27.55
48894;BMP280;34710;35.798;139.446;2022-09-09T11:09:26;100618.10;;;28.12
48894;BMP280;34710;35.798;139.446;2022-09-09T11:11:58;100617.88;;;28.52
48894;BMP280;34710;35.798;139.446;2022-09-09T11:14:32;100616.71;;;28.90
48894;BMP280;34710;35.798;139.446;2022-09-09T11:17:10;100618.37;;;27.55
48894;BMP280;34710;35.798;139.446;2022-09-09T11:19:41;100619.19;;;28.50
48894;BMP280;34710;35.798;139.446;2022-09-09T11:22:18;100626.84;;;28.60
48894;BMP280;34710;35.798;139.446;2022-09-09T11:24:53;100633.13;;;29.14
48894;BMP280;34710;35.798;139.446;2022-09-09T11:27:27;100632.67;;;28.25
48894;BMP280;34710;35.798;139.446;2022-09-09T11:30:12;100631.95;;;28.72
48894;BMP280;34710;35.798;139.446;2022-09-09T11:32:57;100629.39;;;28.39
48894;BMP280;34710;35.798;139.446;2022-09-09T11:35:40;100628.21;;;29.46
48894;BMP280;34710;35.798;139.446;2022-09-09T11:38:28;100635.53;;;29.40
48894;BMP280;34710;35.798;139.446;2022-09-09T11:40:59;100641.62;;;29.30
48894;BMP280;34710;35.798;139.446;2022-09-09T11:43:33;100642.33;;;29.96
48894;BMP280;34710;35.798;139.446;2022-09-09T11:46:08;100641.56;;;29.61
48894;BMP280;34710;35.798;139.446;2022-09-09T11:48:39;100637.91;;;28.52
48894;BMP280;34710;35.798;139.446;2022-09-09T11:51:10;100632.22;;;28.28
48894;BMP280;34710;35.798;139.446;2022-09-09T11:53:50;100627.11;;;29.03
48894;BMP280;34710;35.798;139.446;2022-09-09T11:56:28;100623.44;;;29.28
48894;BMP280;34710;35.798;139.446;2022-09-09T11:59:02;100620.78;;;29.43
48894;BMP280;34710;35.798;139.446;2022-09-09T12:01:38;100620.34;;;29.49
48894;BMP280;34710;35.798;139.446;2022-09-09T12:04:17;100619.53;;;29.25
48894;BMP280;34710;35.798;139.446;2022-09-09T12:06:54;100621.90;;;29.65
48894;BMP280;34710;35.798;139.446;2022-09-09T12:09:33;100625.47;;;28.44
48894;BMP280;34710;35.798;139.446;2022-09-09T12:12:25;100628.18;;;27.83
48894;BMP280;34710;35.798;139.446;2022-09-09T12:14:59;100629.93;;;27.91
48894;BMP280;34710;35.798;139.446;2022-09-09T12:17:30;100626.58;;;28.61
48894;BMP280;34710;35.798;139.446;2022-09-09T12:20:11;100631.66;;;28.07
48894;BMP280;34710;35.798;139.446;2022-09-09T12:22:53;100631.09;;;28.60
48894;BMP280;34710;35.798;139.446;2022-09-09T12:25:33;100630.76;;;26.97
48894;BMP280;34710;35.798;139.446;2022-09-09T12:28:11;100634.04;;;26.80
48894;BMP280;34710;35.798;139.446;2022-09-09T12:30:52;100629.33;;;27.02
48894;BMP280;34710;35.798;139.446;2022-09-09T12:33:24;100616.55;;;25.96
48894;BMP280;34710;35.798;139.446;2022-09-09T12:35:57;100614.01;;;26.35
48894;BMP280;34710;35.798;139.446;2022-09-09T12:38:31;100621.17;;;27.51
48894;BMP280;34710;35.798;139.446;2022-09-09T12:41:01;100634.96;;;28.50
48894;BMP280;34710;35.798;139.446;2022-09-09T12:43:31;100644.56;;;27.92
48894;BMP280;34710;35.798;139.446;2022-09-09T12:46:02;100648.93;;;28.06
48894;BMP280;34710;35.798;139.446;2022-09-09T12:48:35;100646.61;;;28.40
48894;BMP280;34710;35.798;139.446;2022-09-09T12:51:16;100651.19;;;27.67
48894;BMP280;34710;35.798;139.446;2022-09-09T12:53:46;100647.82;;;28.72
48894;BMP280;34710;35.798;139.446;2022-09-09T12:56:22;100646.69;;;27.60
48894;BMP280;34710;35.798;139.446;2022-09-09T12:58:53;100645.15;;;27.11
48894;BMP280;34710;35.798;139.446;2022-09-09T13:01:26;100646.05;;;27.97
48894;BMP280;34710;35.798;139.446;2022-09-09T13:03:56;100648.91;;;27.49
48894;BMP280;34710;35.798;139.446;2022-09-09T13:06:27;100653.68;;;27.63
48894;BMP280;34710;35.798;139.446;2022-09-09T13:08:58;100652.38;;;27.65
48894;BMP280;34710;35.798;139.446;2022-09-09T13:11:34;100651.65;;;26.70
48894;BMP280;34710;35.798;139.446;2022-09-09T13:14:06;100653.14;;;26.69
48894;BMP280;34710;35.798;139.446;2022-09-09T13:16:36;100652.81;;;27.19
48894;BMP280;34710;35.798;139.446;2022-09-09T13:19:09;100659.62;;;27.83
48894;BMP280;34710;35.798;139.446;2022-09-09T13:21:43;100661.27;;;27.72
48894;BMP280;34710;35.798;139.446;2022-09-09T13:24:27;100662.44;;;28.64
48894;BMP280;34710;35.798;139.446;2022-09-09T13:27:00;100667.71;;;28.44
48894;BMP280;34710;35.798;139.446;2022-09-09T13:29:32;100672.73;;;28.50
48894;BMP280;34710;35.798;139.446;2022-09-09T13:32:06;100677.30;;;28.81
48894;BMP280;34710;35.798;139.446;2022-09-09T13:34:52;100683.25;;;29.10
48894;BMP280;34710;35.798;139.446;2022-09-09T13:37:25;100684.98;;;29.20
48894;BMP280;34710;35.798;139.446;2022-09-09T13:39:55;100690.38;;;29.07
48894;BMP280;34710;35.798;139.446;2022-09-09T13:42:28;100694.34;;;27.90
48894;BMP280;34710;35.798;139.446;2022-09-09T13:45:01;100697.84;;;28.43
48894;BMP280;34710;35.798;139.446;2022-09-09T13:47:33;100701.22;;;28.94
48894;BMP280;34710;35.798;139.446;2022-09-09T13:50:20;100703.71;;;29.09
48894;BMP280;34710;35.798;139.446;2022-09-09T13:52:51;100700.33;;;29.28
48894;BMP280;34710;35.798;139.446;2022-09-09T13:55:22;100697.43;;;29.08
48894;BMP280;34710;35.798;139.446;2022-09-09T13:57:53;100694.00;;;29.46
48894;BMP280;34710;35.798;139.446;2022-09-09T14:00:24;100691.23;;;29.46
48894;BMP280;34710;35.798;139.446;2022-09-09T14:02:53;100694.37;;;29.57
48894;BMP280;34710;35.798;139.446;2022-09-09T14:05:23;100696.30;;;29.14